sensor_id;sensor_type;location;lat;lon;timestamp;pressure;altitude;pressure_sealevel;temperature;humidity
49723;BME280;43484;43.608;1.458;2023-05-03T00:01:17;100000.63;;;15.47;100.00
49723;BME280;43484;43.608;1.458;2023-05-03T00:03:44;99993.81;;;15.54;100.00
49723;BME280;43484;43.608;1.458;2023-05-03T00:06:14;99998.03;;;15.47;100.00
49723;BME280;43484;43.608;1.458;2023-05-03T00:08:42;99993.69;;;15.43;100.00
49723;BME280;43484;43.608;1.458;2023-05-03T00:11:09;99992.81;;;15.44;100.00
49723;BME280;43484;43.608;1.458;2023-05-03T00:13:36;99996.16;;;15.39;100.00
49723;BME280;43484;43.608;1.458;2023-05-03T00:16:03;99984.88;;;15.32;100.00
49723;BME280;43484;43.608;1.458;2023-05-03T00:18:30;99977.84;;;15.21;100.00
49723;BME280;43484;43.608;1.458;2023-05-03T00:20:57;99978.78;;;15.26;100.00
49723;BME280;43484;43.608;1.458;2023-05-03T00:23:25;99977.78;;;15.16;100.00
49723;BME280;43484;43.608;1.458;2023-05-03T00:25:54;99981.28;;;15.18;100.00
49723;BME280;43484;43.608;1.458;2023-05-03T00:28:22;99966.94;;;15.40;100.00
49723;BME280;43484;43.608;1.458;2023-05-03T00:30:50;99974.63;;;15.37;100.00
49723;BME280;43484;43.608;1.458;2023-05-03T00:33:17;99969.59;;;15.46;100.00
49723;BME280;43484;43.608;1.458;2023-05-03T00:35:44;99965.34;;;15.51;100.00
49723;BME280;43484;43.608;1.458;2023-05-03T00:38:11;99954.22;;;15.53;100.00
49723;BME280;43484;43.608;1.458;2023-05-03T00:40:39;99959.38;;;15.55;100.00
49723;BME280;43484;43.608;1.458;2023-05-03T00:43:06;99951.75;;;15.62;100.00
49723;BME280;43484;43.608;1.458;2023-05-03T00:45:33;99951.66;;;15.58;100.00
49723;BME280;43484;43.608;1.458;2023-05-03T00:48:00;99943.63;;;15.35;100.00
49723;BME280;43484;43.608;1.458;2023-05-03T00:50:27;99935.16;;;15.42;100.00
49723;BME280;43484;43.608;1.458;2023-05-03T00:52:55;99937.59;;;15.35;100.00
49723;BME280;43484;43.608;1.458;2023-05-03T00:55:21;99931.56;;;15.34;100.00
49723;BME280;43484;43.608;1.458;2023-05-03T00:57:49;99928.97;;;15.33;100.00
49723;BME280;43484;43.608;1.458;2023-05-03T01:00:15;99927.28;;;15.36;100.00
49723;BME280;43484;43.608;1.458;2023-05-03T01:02:43;99911.88;;;15.39;100.00
49723;BME280;43484;43.608;1.458;2023-05-03T01:05:09;99914.34;;;15.33;100.00
49723;BME280;43484;43.608;1.458;2023-05-03T01:18:47;99896.09;;;15.18;100.00
49723;BME280;43484;43.608;1.458;2023-05-03T01:21:16;99891.72;;;15.11;100.00
49723;BME280;43484;43.608;1.458;2023-05-03T01:26:27;99889.84;;;14.99;100.00
49723;BME280;43484;43.608;1.458;2023-05-03T01:28:54;99883.81;;;14.99;100.00
49723;BME280;43484;43.608;1.458;2023-05-03T01:31:48;99881.25;;;14.99;100.00
49723;BME280;43484;43.608;1.458;2023-05-03T01:34:32;99878.59;;;14.93;100.00
49723;BME280;43484;43.608;1.458;2023-05-03T01:37:03;99886.31;;;14.90;100.00
49723;BME280;43484;43.608;1.458;2023-05-03T01:39:39;99888.00;;;14.88;100.00
49723;BME280;43484;43.608;1.458;2023-05-03T01:42:09;99887.97;;;14.86;100.00
49723;BME280;43484;43.608;1.458;2023-05-03T01:44:36;99881.03;;;14.82;100.00
49723;BME280;43484;43.608;1.458;2023-05-03T01:47:03;99875.13;;;14.91;100.00
49723;BME280;43484;43.608;1.458;2023-05-03T01:49:30;99876.91;;;14.93;100.00
49723;BME280;43484;43.608;1.458;2023-05-03T01:51:57;99875.09;;;14.88;100.00
49723;BME280;43484;43.608;1.458;2023-05-03T01:54:23;99864.72;;;14.83;100.00
49723;BME280;43484;43.608;1.458;2023-05-03T01:56:50;99869.00;;;14.81;100.00
49723;BME280;43484;43.608;1.458;2023-05-03T01:59:17;99855.97;;;14.74;100.00
49723;BME280;43484;43.608;1.458;2023-05-03T02:01:43;99863.75;;;14.75;100.00
49723;BME280;43484;43.608;1.458;2023-05-03T02:04:10;99865.34;;;14.66;100.00
49723;BME280;43484;43.608;1.458;2023-05-03T02:06:36;99860.19;;;14.66;100.00
49723;BME280;43484;43.608;1.458;2023-05-03T02:09:03;99854.16;;;14.67;100.00
49723;BME280;43484;43.608;1.458;2023-05-03T02:11:30;99857.56;;;14.61;100.00
49723;BME280;43484;43.608;1.458;2023-05-03T02:13:56;99852.41;;;14.63;100.00
49723;BME280;43484;43.608;1.458;2023-05-03T02:16:23;99846.31;;;14.58;100.00
49723;BME280;43484;43.608;1.458;2023-05-03T02:18:49;99849.72;;;14.57;100.00
49723;BME280;43484;43.608;1.458;2023-05-03T02:21:17;99844.56;;;14.57;100.00
49723;BME280;43484;43.608;1.458;2023-05-03T02:23:43;99841.13;;;14.55;100.00
49723;BME280;43484;43.608;1.458;2023-05-03T02:26:10;99839.28;;;14.46;100.00
49723;BME280;43484;43.608;1.458;2023-05-03T02:28:36;99842.00;;;14.57;100.00
49723;BME280;43484;43.608;1.458;2023-05-03T02:31:03;99841.94;;;14.52;100.00
49723;BME280;43484;43.608;1.458;2023-05-03T02:33:31;99840.97;;;14.44;100.00
49723;BME280;43484;43.608;1.458;2023-05-03T02:35:58;99839.28;;;14.45;100.00
49723;BME280;43484;43.608;1.458;2023-05-03T02:38:24;99840.06;;;14.41;100.00
49723;BME280;43484;43.608;1.458;2023-05-03T02:40:51;99836.63;;;14.40;100.00
49723;BME280;43484;43.608;1.458;2023-05-03T02:43:21;99834.91;;;14.39;100.00
49723;BME280;43484;43.608;1.458;2023-05-03T02:45:48;99836.56;;;14.36;100.00
49723;BME280;43484;43.608;1.458;2023-05-03T02:48:15;99841.56;;;14.27;100.00
49723;BME280;43484;43.608;1.458;2023-05-03T02:50:41;99845.03;;;14.29;100.00
49723;BME280;43484;43.608;1.458;2023-05-03T02:53:08;99841.53;;;14.25;100.00
49723;BME280;43484;43.608;1.458;2023-05-03T02:55:35;99837.94;;;14.14;100.00
49723;BME280;43484;43.608;1.458;2023-05-03T02:58:01;99830.25;;;14.17;100.00
49723;BME280;43484;43.608;1.458;2023-05-03T03:00:28;99834.56;;;14.18;100.00
49723;BME280;43484;43.608;1.458;2023-05-03T03:02:54;99840.53;;;14.17;100.00
49723;BME280;43484;43.608;1.458;2023-05-03T03:05:21;99829.31;;;14.12;100.00
49723;BME280;43484;43.608;1.458;2023-05-03T03:07:48;99839.63;;;14.14;100.00
49723;BME280;43484;43.608;1.458;2023-05-03T03:10:15;99829.22;;;14.06;100.00
49723;BME280;43484;43.608;1.458;2023-05-03T03:12:42;99825.78;;;14.06;100.00
49723;BME280;43484;43.608;1.458;2023-05-03T03:15:09;99834.25;;;14.00;100.00
49723;BME280;43484;43.608;1.458;2023-05-03T03:17:35;99839.28;;;13.91;100.00
49723;BME280;43484;43.608;1.458;2023-05-03T03:20:07;99830.72;;;13.92;100.00
49723;BME280;43484;43.608;1.458;2023-05-03T03:22:38;99836.81;;;13.99;100.00
49723;BME280;43484;43.608;1.458;2023-05-03T03:25:05;99833.22;;;13.88;100.00
49723;BME280;43484;43.608;1.458;2023-05-03T03:27:32;99835.72;;;13.83;100.00
49723;BME280;43484;43.608;1.458;2023-05-03T03:29:59;99828.81;;;13.80;100.00
49723;BME280;43484;43.608;1.458;2023-05-03T03:32:26;99831.44;;;13.85;100.00
49723;BME280;43484;43.608;1.458;2023-05-03T03:34:53;99828.63;;;13.70;100.00
49723;BME280;43484;43.608;1.458;2023-05-03T03:37:19;99825.88;;;13.59;100.00
49723;BME280;43484;43.608;1.458;2023-05-03T03:39:47;99823.91;;;13.46;100.00
49723;BME280;43484;43.608;1.458;2023-05-03T03:42:14;99817.22;;;13.54;100.00
49723;BME280;43484;43.608;1.458;2023-05-03T03:44:41;99816.31;;;13.52;100.00
49723;BME280;43484;43.608;1.458;2023-05-03T03:47:07;99821.25;;;13.40;100.00
49723;BME280;43484;43.608;1.458;2023-05-03T03:49:34;99819.56;;;13.41;100.00
49723;BME280;43484;43.608;1.458;2023-05-03T03:52:01;99804.84;;;13.35;100.00
49723;BME280;43484;43.608;1.458;2023-05-03T03:54:28;99812.66;;;13.41;100.00
49723;BME280;43484;43.608;1.458;2023-05-03T03:56:54;99811.69;;;13.35;100.00
49723;BME280;43484;43.608;1.458;2023-05-03T03:59:21;99809.81;;;13.25;100.00
49723;BME280;43484;43.608;1.458;2023-05-03T04:01:48;99816.06;;;13.39;100.00
49723;BME280;43484;43.608;1.458;2023-05-03T04:04:14;99818.66;;;13.40;100.00
49723;BME280;43484;43.608;1.458;2023-05-03T04:06:41;99818.84;;;13.49;100.00
49723;BME280;43484;43.608;1.458;2023-05-03T04:09:09;99817.94;;;13.47;100.00
49723;BME280;43484;43.608;1.458;2023-05-03T04:11:36;99822.03;;;13.36;100.00
49723;BME280;43484;43.608;1.458;2023-05-03T04:14:02;99826.31;;;13.36;100.00
49723;BME280;43484;43.608;1.458;2023-05-03T04:16:29;99825.50;;;13.38;100.00
49723;BME280;43484;43.608;1.458;2023-05-03T04:18:56;99833.16;;;13.35;100.00
49723;BME280;43484;43.608;1.458;2023-05-03T04:21:22;99825.34;;;13.29;100.00
49723;BME280;43484;43.608;1.458;2023-05-03T04:23:50;99821.69;;;13.18;100.00
49723;BME280;43484;43.608;1.458;2023-05-03T04:26:16;99816.50;;;13.15;100.00
49723;BME280;43484;43.608;1.458;2023-05-03T04:28:57;99808.53;;;13.03;100.00
49723;BME280;43484;43.608;1.458;2023-05-03T04:31:24;99797.34;;;13.01;100.00
49723;BME280;43484;43.608;1.458;2023-05-03T04:33:52;99796.59;;;13.05;100.00
49723;BME280;43484;43.608;1.458;2023-05-03T04:36:18;99798.22;;;13.02;100.00
49723;BME280;43484;43.608;1.458;2023-05-03T04:38:51;99802.34;;;12.95;100.00
49723;BME280;43484;43.608;1.458;2023-05-03T04:41:18;99804.97;;;12.97;100.00
49723;BME280;43484;43.608;1.458;2023-05-03T04:43:44;99806.94;;;13.10;100.00
49723;BME280;43484;43.608;1.458;2023-05-03T04:46:11;99805.59;;;12.85;100.00
49723;BME280;43484;43.608;1.458;2023-05-03T04:48:37;99802.91;;;12.79;100.00
49723;BME280;43484;43.608;1.458;2023-05-03T04:51:04;99796.75;;;12.73;100.00
49723;BME280;43484;43.608;1.458;2023-05-03T04:53:31;99799.50;;;12.80;100.00
49723;BME280;43484;43.608;1.458;2023-05-03T04:55:57;99798.47;;;12.72;100.00
49723;BME280;43484;43.608;1.458;2023-05-03T04:58:24;99801.78;;;12.67;100.00
49723;BME280;43484;43.608;1.458;2023-05-03T05:00:51;99798.22;;;12.60;100.00
49723;BME280;43484;43.608;1.458;2023-05-03T05:03:17;99798.50;;;12.74;100.00
49723;BME280;43484;43.608;1.458;2023-05-03T05:05:44;99796.72;;;12.71;100.00
49723;BME280;43484;43.608;1.458;2023-05-03T05:08:11;99804.34;;;12.67;100.00
49723;BME280;43484;43.608;1.458;2023-05-03T05:10:40;99803.56;;;12.69;100.00
49723;BME280;43484;43.608;1.458;2023-05-03T05:13:06;99806.28;;;12.77;100.00
49723;BME280;43484;43.608;1.458;2023-05-03T05:15:33;99804.56;;;12.77;100.00
49723;BME280;43484;43.608;1.458;2023-05-03T05:18:00;99823.25;;;12.69;100.00
49723;BME280;43484;43.608;1.458;2023-05-03T05:20:27;99811.41;;;12.77;100.00
49723;BME280;43484;43.608;1.458;2023-05-03T05:22:53;99832.00;;;12.78;100.00
49723;BME280;43484;43.608;1.458;2023-05-03T05:25:20;99816.72;;;12.84;100.00
49723;BME280;43484;43.608;1.458;2023-05-03T05:27:46;99833.16;;;12.92;100.00
49723;BME280;43484;43.608;1.458;2023-05-03T05:30:13;99828.81;;;12.90;100.00
49723;BME280;43484;43.608;1.458;2023-05-03T05:32:40;99829.75;;;12.93;100.00
49723;BME280;43484;43.608;1.458;2023-05-03T05:35:07;99833.84;;;12.84;100.00
49723;BME280;43484;43.608;1.458;2023-05-03T05:37:34;99838.09;;;12.83;100.00
49723;BME280;43484;43.608;1.458;2023-05-03T05:40:00;99845.13;;;12.92;100.00
49723;BME280;43484;43.608;1.458;2023-05-03T05:42:28;99842.66;;;12.96;100.00
49723;BME280;43484;43.608;1.458;2023-05-03T05:44:54;99846.97;;;12.97;100.00
49723;BME280;43484;43.608;1.458;2023-05-03T05:47:22;99845.50;;;13.08;100.00
49723;BME280;43484;43.608;1.458;2023-05-03T05:49:49;99849.75;;;13.06;100.00
49723;BME280;43484;43.608;1.458;2023-05-03T05:52:15;99856.72;;;13.12;100.00
49723;BME280;43484;43.608;1.458;2023-05-03T05:54:42;99857.72;;;13.20;100.00
49723;BME280;43484;43.608;1.458;2023-05-03T05:57:09;99856.09;;;13.23;100.00
49723;BME280;43484;43.608;1.458;2023-05-03T05:59:36;99859.72;;;13.33;100.00
49723;BME280;43484;43.608;1.458;2023-05-03T06:02:03;99862.84;;;13.18;100.00
49723;BME280;43484;43.608;1.458;2023-05-03T06:04:29;99856.09;;;13.23;100.00
49723;BME280;43484;43.608;1.458;2023-05-03T06:06:56;99858.69;;;13.25;100.00
49723;BME280;43484;43.608;1.458;2023-05-03T06:09:22;99857.06;;;13.30;100.00
49723;BME280;43484;43.608;1.458;2023-05-03T06:11:50;99857.16;;;13.34;100.00
49723;BME280;43484;43.608;1.458;2023-05-03T06:14:17;99854.66;;;13.37;100.00
49723;BME280;43484;43.608;1.458;2023-05-03T06:16:45;99855.63;;;13.44;100.00
49723;BME280;43484;43.608;1.458;2023-05-03T06:19:12;99865.19;;;13.51;100.00
49723;BME280;43484;43.608;1.458;2023-05-03T06:21:39;99861.66;;;13.46;100.00
49723;BME280;43484;43.608;1.458;2023-05-03T06:24:06;99862.59;;;13.49;100.00
49723;BME280;43484;43.608;1.458;2023-05-03T06:26:32;99863.59;;;13.57;100.00
49723;BME280;43484;43.608;1.458;2023-05-03T06:28:59;99861.16;;;13.66;100.00
49723;BME280;43484;43.608;1.458;2023-05-03T06:31:26;99855.22;;;13.69;100.00
49723;BME280;43484;43.608;1.458;2023-05-03T06:33:53;99863.84;;;13.71;100.00
49723;BME280;43484;43.608;1.458;2023-05-03T06:36:19;99853.53;;;13.71;100.00
49723;BME280;43484;43.608;1.458;2023-05-03T06:38:46;99861.38;;;13.78;100.00
49723;BME280;43484;43.608;1.458;2023-05-03T06:41:12;99856.31;;;13.83;100.00
49723;BME280;43484;43.608;1.458;2023-05-03T06:43:39;99859.88;;;13.91;100.00
49723;BME280;43484;43.608;1.458;2023-05-03T06:46:06;99863.38;;;13.93;100.00
49723;BME280;43484;43.608;1.458;2023-05-03T06:48:32;99855.72;;;13.99;100.00
49723;BME280;43484;43.608;1.458;2023-05-03T06:50:59;99855.81;;;14.05;100.00
49723;BME280;43484;43.608;1.458;2023-05-03T06:53:25;99855.91;;;14.10;100.00
49723;BME280;43484;43.608;1.458;2023-05-03T06:55:52;99851.50;;;14.03;100.00
49723;BME280;43484;43.608;1.458;2023-05-03T06:58:19;99855.88;;;14.08;100.00
49723;BME280;43484;43.608;1.458;2023-05-03T07:00:45;99859.25;;;14.06;100.00
49723;BME280;43484;43.608;1.458;2023-05-03T07:03:12;99856.03;;;14.19;100.00
49723;BME280;43484;43.608;1.458;2023-05-03T07:05:39;99852.53;;;14.17;100.00
49723;BME280;43484;43.608;1.458;2023-05-03T07:08:05;99855.22;;;14.21;100.00
49723;BME280;43484;43.608;1.458;2023-05-03T07:10:33;99855.19;;;14.20;100.00
49723;BME280;43484;43.608;1.458;2023-05-03T07:12:59;99851.75;;;14.19;100.00
49723;BME280;43484;43.608;1.458;2023-05-03T07:15:26;99859.44;;;14.18;100.00
49723;BME280;43484;43.608;1.458;2023-05-03T07:17:53;99850.16;;;14.26;100.00
49723;BME280;43484;43.608;1.458;2023-05-03T07:20:20;99851.06;;;14.28;100.00
49723;BME280;43484;43.608;1.458;2023-05-03T07:22:46;99857.03;;;14.27;100.00
49723;BME280;43484;43.608;1.458;2023-05-03T07:25:13;99848.50;;;14.29;100.00
49723;BME280;43484;43.608;1.458;2023-05-03T07:27:43;99848.56;;;14.35;100.00
49723;BME280;43484;43.608;1.458;2023-05-03T07:30:10;99841.00;;;14.46;100.00
49723;BME280;43484;43.608;1.458;2023-05-03T07:32:36;99840.22;;;14.51;100.00
49723;BME280;43484;43.608;1.458;2023-05-03T07:35:04;99845.47;;;14.59;100.00
49723;BME280;43484;43.608;1.458;2023-05-03T07:37:32;99842.09;;;14.61;100.00
49723;BME280;43484;43.608;1.458;2023-05-03T07:39:59;99835.28;;;14.68;100.00
49723;BME280;43484;43.608;1.458;2023-05-03T07:42:26;99839.72;;;14.78;100.00
49723;BME280;43484;43.608;1.458;2023-05-03T07:44:52;99847.53;;;14.84;100.00
49723;BME280;43484;43.608;1.458;2023-05-03T07:47:20;99832.13;;;14.90;100.00
49723;BME280;43484;43.608;1.458;2023-05-03T07:49:47;99831.38;;;14.98;100.00
49723;BME280;43484;43.608;1.458;2023-05-03T07:52:16;99835.72;;;15.04;100.00
49723;BME280;43484;43.608;1.458;2023-05-03T07:54:43;99834.09;;;15.12;100.00
49723;BME280;43484;43.608;1.458;2023-05-03T07:57:13;99838.53;;;15.24;100.00
49723;BME280;43484;43.608;1.458;2023-05-03T07:59:40;99822.22;;;15.28;100.00
49723;BME280;43484;43.608;1.458;2023-05-03T08:02:06;99824.09;;;15.39;100.00
49723;BME280;43484;43.608;1.458;2023-05-03T08:04:33;99823.31;;;15.46;100.00
49723;BME280;43484;43.608;1.458;2023-05-03T08:07:01;99825.09;;;15.50;100.00
49723;BME280;43484;43.608;1.458;2023-05-03T08:09:29;99809.72;;;15.62;100.00
49723;BME280;43484;43.608;1.458;2023-05-03T08:11:55;99812.28;;;15.62;100.00
49723;BME280;43484;43.608;1.458;2023-05-03T08:14:22;99807.28;;;15.82;100.00
49723;BME280;43484;43.608;1.458;2023-05-03T08:16:49;99802.22;;;15.98;100.00
49723;BME280;43484;43.608;1.458;2023-05-03T08:19:16;99797.97;;;16.06;100.00
49723;BME280;43484;43.608;1.458;2023-05-03T08:21:43;99804.03;;;16.08;100.00
49723;BME280;43484;43.608;1.458;2023-05-03T08:24:10;99803.22;;;16.18;100.00
49723;BME280;43484;43.608;1.458;2023-05-03T08:26:37;99797.34;;;16.38;100.00
49723;BME280;43484;43.608;1.458;2023-05-03T08:29:04;99795.69;;;16.53;100.00
49723;BME280;43484;43.608;1.458;2023-05-03T08:31:31;99796.59;;;16.60;100.00
49723;BME280;43484;43.608;1.458;2023-05-03T08:33:58;99796.63;;;16.66;100.00
49723;BME280;43484;43.608;1.458;2023-05-03T08:36:24;99801.00;;;16.82;100.00
49723;BME280;43484;43.608;1.458;2023-05-03T08:38:51;99794.13;;;16.91;100.00
49723;BME280;43484;43.608;1.458;2023-05-03T08:41:20;99791.59;;;17.03;100.00
49723;BME280;43484;43.608;1.458;2023-05-03T08:43:52;99791.66;;;17.24;100.00
49723;BME280;43484;43.608;1.458;2023-05-03T08:46:20;99795.13;;;17.28;100.00
49723;BME280;43484;43.608;1.458;2023-05-03T08:48:49;99785.59;;;17.30;100.00
49723;BME280;43484;43.608;1.458;2023-05-03T08:51:16;99783.94;;;17.47;100.00
49723;BME280;43484;43.608;1.458;2023-05-03T08:53:44;99787.38;;;17.52;100.00
49723;BME280;43484;43.608;1.458;2023-05-03T08:56:18;99780.50;;;17.65;100.00
49723;BME280;43484;43.608;1.458;2023-05-03T08:58:46;99790.00;;;17.79;100.00
49723;BME280;43484;43.608;1.458;2023-05-03T09:01:13;99779.63;;;17.91;100.00
49723;BME280;43484;43.608;1.458;2023-05-03T09:03:40;99779.59;;;18.06;100.00
49723;BME280;43484;43.608;1.458;2023-05-03T09:06:22;99774.41;;;18.12;100.00
49723;BME280;43484;43.608;1.458;2023-05-03T09:08:52;99785.63;;;18.23;100.00
49723;BME280;43484;43.608;1.458;2023-05-03T09:11:30;99785.63;;;18.17;100.00
49723;BME280;43484;43.608;1.458;2023-05-03T09:16:38;99788.16;;;18.35;100.00
49723;BME280;43484;43.608;1.458;2023-05-03T09:19:07;99776.03;;;18.61;100.00
49723;BME280;43484;43.608;1.458;2023-05-03T09:21:40;99779.44;;;18.74;100.00
49723;BME280;43484;43.608;1.458;2023-05-03T09:24:15;99772.50;;;18.77;100.00
49723;BME280;43484;43.608;1.458;2023-05-03T09:26:43;99772.47;;;18.81;100.00
49723;BME280;43484;43.608;1.458;2023-05-03T09:29:26;99772.41;;;18.93;100.00
49723;BME280;43484;43.608;1.458;2023-05-03T09:32:03;99763.75;;;18.97;100.00
49723;BME280;43484;43.608;1.458;2023-05-03T09:34:34;99769.75;;;19.08;100.00
49723;BME280;43484;43.608;1.458;2023-05-03T09:37:03;99770.53;;;19.20;100.00
49723;BME280;43484;43.608;1.458;2023-05-03T09:39:30;99766.16;;;19.30;100.00
49723;BME280;43484;43.608;1.458;2023-05-03T09:41:56;99766.16;;;19.28;100.00
49723;BME280;43484;43.608;1.458;2023-05-03T09:44:46;99763.44;;;19.48;100.00
49723;BME280;43484;43.608;1.458;2023-05-03T09:47:19;99759.03;;;19.56;100.00
49723;BME280;43484;43.608;1.458;2023-05-03T09:49:46;99757.22;;;19.68;100.00
49723;BME280;43484;43.608;1.458;2023-05-03T09:52:13;99756.31;;;19.72;100.00
49723;BME280;43484;43.608;1.458;2023-05-03T09:54:41;99762.31;;;19.82;100.00
49723;BME280;43484;43.608;1.458;2023-05-03T09:57:07;99763.06;;;19.91;100.00
49723;BME280;43484;43.608;1.458;2023-05-03T09:59:36;99758.78;;;19.86;100.00
49723;BME280;43484;43.608;1.458;2023-05-03T10:02:05;99761.16;;;20.10;98.04
49723;BME280;43484;43.608;1.458;2023-05-03T10:04:42;99767.19;;;20.15;98.39
49723;BME280;43484;43.608;1.458;2023-05-03T10:07:14;99763.75;;;20.10;98.48
49723;BME280;43484;43.608;1.458;2023-05-03T10:09:44;99755.91;;;20.16;98.59
49723;BME280;43484;43.608;1.458;2023-05-03T10:12:11;99749.72;;;20.29;99.87
49723;BME280;43484;43.608;1.458;2023-05-03T10:14:40;99753.19;;;20.28;99.29
49723;BME280;43484;43.608;1.458;2023-05-03T10:17:13;99754.00;;;20.33;94.95
49723;BME280;43484;43.608;1.458;2023-05-03T10:22:20;99749.50;;;20.47;92.36
49723;BME280;43484;43.608;1.458;2023-05-03T10:27:22;99749.38;;;20.59;92.61
49723;BME280;43484;43.608;1.458;2023-05-03T10:29:50;99744.19;;;20.56;96.01
49723;BME280;43484;43.608;1.458;2023-05-03T10:32:34;99744.16;;;20.59;90.82
49723;BME280;43484;43.608;1.458;2023-05-03T10:35:07;99737.19;;;20.61;89.45
49723;BME280;43484;43.608;1.458;2023-05-03T10:37:35;99738.59;;;20.85;84.84
49723;BME280;43484;43.608;1.458;2023-05-03T10:40:07;99736.91;;;20.82;86.14
49723;BME280;43484;43.608;1.458;2023-05-03T10:42:36;99738.72;;;20.77;92.99
49723;BME280;43484;43.608;1.458;2023-05-03T10:45:06;99731.78;;;20.78;95.53
49723;BME280;43484;43.608;1.458;2023-05-03T10:47:34;99736.97;;;20.79;86.81
49723;BME280;43484;43.608;1.458;2023-05-03T10:55:20;99735.44;;;21.26;79.83
49723;BME280;43484;43.608;1.458;2023-05-03T10:57:47;99729.50;;;21.16;76.39
49723;BME280;43484;43.608;1.458;2023-05-03T11:00:30;99731.06;;;21.28;82.38
49723;BME280;43484;43.608;1.458;2023-05-03T11:05:46;99721.53;;;21.27;92.46
49723;BME280;43484;43.608;1.458;2023-05-03T11:08:17;99709.28;;;21.33;87.25
49723;BME280;43484;43.608;1.458;2023-05-03T11:10:48;99705.75;;;21.36;78.80
49723;BME280;43484;43.608;1.458;2023-05-03T11:13:15;99702.13;;;21.44;90.21
49723;BME280;43484;43.608;1.458;2023-05-03T11:15:42;99705.56;;;21.48;83.23
49723;BME280;43484;43.608;1.458;2023-05-03T11:18:11;99705.41;;;21.57;84.00
49723;BME280;43484;43.608;1.458;2023-05-03T11:20:37;99694.22;;;21.49;82.70
49723;BME280;43484;43.608;1.458;2023-05-03T11:23:05;99694.16;;;21.55;81.79
49723;BME280;43484;43.608;1.458;2023-05-03T11:25:33;99690.69;;;21.53;89.77
49723;BME280;43484;43.608;1.458;2023-05-03T11:28:00;99693.94;;;21.67;83.96
49723;BME280;43484;43.608;1.458;2023-05-03T11:30:28;99697.31;;;21.72;84.55
49723;BME280;43484;43.608;1.458;2023-05-03T11:32:55;99691.94;;;21.82;81.77
49723;BME280;43484;43.608;1.458;2023-05-03T11:35:22;99688.25;;;21.92;80.97
49723;BME280;43484;43.608;1.458;2023-05-03T11:37:52;99682.44;;;21.80;85.28
49723;BME280;43484;43.608;1.458;2023-05-03T11:40:19;99681.44;;;21.85;84.15
49723;BME280;43484;43.608;1.458;2023-05-03T11:43:05;99685.69;;;21.91;78.52
49723;BME280;43484;43.608;1.458;2023-05-03T11:45:43;99677.16;;;21.83;79.44
49723;BME280;43484;43.608;1.458;2023-05-03T11:48:12;99680.38;;;21.95;78.93
49723;BME280;43484;43.608;1.458;2023-05-03T11:50:47;99677.47;;;22.12;76.09
49723;BME280;43484;43.608;1.458;2023-05-03T11:53:15;99680.78;;;22.20;72.82
49723;BME280;43484;43.608;1.458;2023-05-03T11:55:43;99674.00;;;22.11;75.31
49723;BME280;43484;43.608;1.458;2023-05-03T11:58:15;99677.63;;;22.03;85.41
49723;BME280;43484;43.608;1.458;2023-05-03T12:00:48;99671.63;;;21.99;79.77
49723;BME280;43484;43.608;1.458;2023-05-03T12:03:21;99673.81;;;22.19;75.17
49723;BME280;43484;43.608;1.458;2023-05-03T12:05:55;99671.84;;;22.31;72.42
49723;BME280;43484;43.608;1.458;2023-05-03T12:08:30;99669.84;;;22.42;69.99
49723;BME280;43484;43.608;1.458;2023-05-03T12:11:02;99657.53;;;22.49;70.72
49723;BME280;43484;43.608;1.458;2023-05-03T12:13:36;99666.44;;;22.39;69.92
49723;BME280;43484;43.608;1.458;2023-05-03T12:16:06;99659.97;;;22.58;68.78
49723;BME280;43484;43.608;1.458;2023-05-03T12:18:54;99655.78;;;22.50;66.82
49723;BME280;43484;43.608;1.458;2023-05-03T12:21:24;99646.28;;;22.46;67.92
49723;BME280;43484;43.608;1.458;2023-05-03T12:23:54;99647.09;;;22.49;71.45
49723;BME280;43484;43.608;1.458;2023-05-03T12:26:22;99659.56;;;22.76;69.05
49723;BME280;43484;43.608;1.458;2023-05-03T12:28:51;99662.34;;;22.70;66.54
49723;BME280;43484;43.608;1.458;2023-05-03T12:31:22;99653.63;;;22.70;68.12
49723;BME280;43484;43.608;1.458;2023-05-03T12:33:48;99648.59;;;22.62;68.08
49723;BME280;43484;43.608;1.458;2023-05-03T12:36:35;99644.06;;;22.70;69.87
49723;BME280;43484;43.608;1.458;2023-05-03T12:39:03;99646.09;;;22.94;62.29
49723;BME280;43484;43.608;1.458;2023-05-03T12:41:35;99631.41;;;22.90;62.89
49723;BME280;43484;43.608;1.458;2023-05-03T12:44:04;99630.38;;;22.96;62.83
49723;BME280;43484;43.608;1.458;2023-05-03T12:46:35;99622.34;;;23.03;60.74
49723;BME280;43484;43.608;1.458;2023-05-03T12:49:02;99624.94;;;23.05;61.90
49723;BME280;43484;43.608;1.458;2023-05-03T12:51:33;99619.00;;;22.98;60.19
49723;BME280;43484;43.608;1.458;2023-05-03T12:54:00;99618.47;;;23.19;61.39
49723;BME280;43484;43.608;1.458;2023-05-03T12:56:27;99616.84;;;23.15;63.84
49723;BME280;43484;43.608;1.458;2023-05-03T12:58:58;99617.06;;;23.06;58.79
49723;BME280;43484;43.608;1.458;2023-05-03T13:01:45;99603.94;;;23.08;62.72
49723;BME280;43484;43.608;1.458;2023-05-03T13:04:31;99602.41;;;23.34;61.21
49723;BME280;43484;43.608;1.458;2023-05-03T13:07:18;99604.78;;;23.45;61.12
49723;BME280;43484;43.608;1.458;2023-05-03T13:09:54;99606.50;;;23.46;63.04
49723;BME280;43484;43.608;1.458;2023-05-03T13:12:24;99608.53;;;23.35;64.05
49723;BME280;43484;43.608;1.458;2023-05-03T13:14:52;99611.03;;;23.38;66.36
49723;BME280;43484;43.608;1.458;2023-05-03T13:17:21;99599.22;;;23.23;67.20
49723;BME280;43484;43.608;1.458;2023-05-03T13:19:49;99600.63;;;23.36;67.74
49723;BME280;43484;43.608;1.458;2023-05-03T13:22:16;99612.47;;;23.51;66.71
49723;BME280;43484;43.608;1.458;2023-05-03T13:24:45;99600.16;;;23.54;68.10
49723;BME280;43484;43.608;1.458;2023-05-03T13:27:12;99589.44;;;23.64;65.68
49723;BME280;43484;43.608;1.458;2023-05-03T13:29:40;99587.38;;;23.44;68.41